Time;durP1;ratioP1;P1;durP2;ratioP2;P2;SDS_P1;SDS_P2;PMS_P1;PMS_P2;Temp;Humidity;BMP_temperature;BMP_pressure;BME280_temperature;BME280_humidity;BME280_pressure;Samples;Min_cycle;Max_cycle;Signal;HPM_P1;HPM_P2
2022/09/03 00:01:09;;;;;;;3.80;1.50;;;23.20;66.20;;;;;;5061999;28;20871;-49
2022/09/03 00:04:00;;;;;;;4.60;1.85;;;23.10;66.20;;;;;;5080684;28;20202;-49
2022/09/03 00:06:37;;;;;;;2.08;1.65;;;23.20;66.30;;;;;;5077881;28;20211;-49
2022/09/03 00:09:23;;;;;;;5.38;1.90;;;23.10;66.20;;;;;;5084163;28;20260;-49
2022/09/03 00:11:54;;;;;;;2.33;1.55;;;23.20;66.50;;;;;;5063932;28;20196;-46
2022/09/03 00:14:38;;;;;;;2.80;1.70;;;23.20;66.40;;;;;;5059110;28;20697;-48
2022/09/03 00:17:15;;;;;;;3.55;1.70;;;23.20;66.50;;;;;;5054577;28;20662;-47
2022/09/03 00:19:58;;;;;;;2.90;1.50;;;23.20;66.60;;;;;;5066896;28;20231;-45
2022/09/03 00:22:33;;;;;;;2.47;1.65;;;23.20;66.60;;;;;;5056425;28;20291;-47
2022/09/03 00:25:09;;;;;;;1.75;1.35;;;23.20;66.60;;;;;;5092224;28;20256;-45
2022/09/03 00:27:40;;;;;;;2.47;1.60;;;23.20;66.60;;;;;;5060025;28;20610;-47
2022/09/03 00:30:12;;;;;;;2.72;1.90;;;23.20;66.60;;;;;;5062857;28;20231;-47
2022/09/03 00:33:09;;;;;;;2.38;1.48;;;23.20;66.70;;;;;;5060791;28;20689;-47
2022/09/03 00:35:49;;;;;;;2.33;1.58;;;23.20;66.70;;;;;;5063352;28;20566;-46
2022/09/03 00:38:16;;;;;;;2.85;1.45;;;23.20;66.70;;;;;;5050336;28;20325;-46
2022/09/03 00:41:21;;;;;;;2.45;1.42;;;23.20;66.70;;;;;;5065063;28;20298;-50
2022/09/03 00:44:12;;;;;;;1.13;1.02;;;23.20;66.80;;;;;;5067172;28;20267;-50
2022/09/03 00:46:55;;;;;;;1.08;0.98;;;23.20;66.70;;;;;;5062835;28;20196;-49
2022/09/03 00:49:29;;;;;;;2.45;1.50;;;23.20;66.80;;;;;;5060960;28;20204;-50
2022/09/03 00:51:59;;;;;;;2.10;1.48;;;23.20;66.60;;;;;;5047703;28;20230;-47
2022/09/03 00:54:35;;;;;;;1.70;1.30;;;23.20;66.70;;;;;;5061013;28;20286;-47
2022/09/03 00:57:35;;;;;;;2.63;1.65;;;23.20;66.80;;;;;;5067961;28;20422;-46
2022/09/03 01:00:12;;;;;;;2.08;1.38;;;23.20;66.80;;;;;;5053032;28;20600;-47
2022/09/03 01:02:55;;;;;;;2.40;1.27;;;23.20;66.80;;;;;;5049488;28;20204;-45
2022/09/03 01:05:40;;;;;;;2.83;1.40;;;23.20;66.90;;;;;;5049323;28;20210;-49
2022/09/03 01:08:30;;;;;;;2.17;1.17;;;23.20;66.90;;;;;;5065541;28;20220;-51
2022/09/03 01:11:09;;;;;;;1.20;1.10;;;23.20;67.00;;;;;;5053562;28;20203;-50
2022/09/03 01:13:48;;;;;;;7.72;1.42;;;23.20;67.00;;;;;;5059078;28;20207;-50
2022/09/03 01:16:28;;;;;;;2.58;1.38;;;23.20;67.00;;;;;;5059070;28;20595;-49
2022/09/03 01:19:10;;;;;;;3.05;1.30;;;23.20;66.90;;;;;;5064373;28;20733;-51
2022/09/03 01:21:57;;;;;;;4.32;1.25;;;23.20;67.00;;;;;;5051905;28;20319;-51
2022/09/03 01:24:30;;;;;;;3.00;1.33;;;23.20;67.00;;;;;;5049938;28;20205;-51
2022/09/03 01:27:21;;;;;;;3.08;1.15;;;23.20;67.10;;;;;;5054245;28;20210;-50
2022/09/03 01:30:02;;;;;;;2.75;1.20;;;23.20;67.20;;;;;;5050198;28;20200;-50
2022/09/03 01:32:43;;;;;;;2.28;1.13;;;23.20;67.20;;;;;;5059380;28;20199;-50
2022/09/03 01:35:15;;;;;;;4.68;1.63;;;23.20;67.20;;;;;;5048470;28;20693;-51
2022/09/03 01:37:50;;;;;;;1.60;1.17;;;23.20;67.10;;;;;;5055610;28;20772;-50
2022/09/03 01:40:52;;;;;;;1.90;1.17;;;23.20;67.20;;;;;;5049970;28;20220;-49
2022/09/03 01:43:34;;;;;;;3.70;1.40;;;23.20;67.20;;;;;;5067584;28;20580;-49
2022/09/03 01:46:23;;;;;;;8.40;1.40;;;23.20;67.40;;;;;;5056668;28;20276;-50
2022/09/03 01:49:25;;;;;;;1.50;1.40;;;23.20;67.40;;;;;;5066836;28;20234;-49
2022/09/03 01:52:28;;;;;;;1.40;1.30;;;23.20;67.40;;;;;;5047353;28;20220;-50
2022/09/03 01:55:13;;;;;;;2.58;1.25;;;23.20;67.40;;;;;;5053856;28;20517;-51
2022/09/03 01:57:46;;;;;;;2.28;1.58;;;23.20;67.40;;;;;;5057141;28;20624;-49
2022/09/03 02:00:19;;;;;;;1.92;1.55;;;23.20;67.40;;;;;;5062998;28;20724;-49
2022/09/03 02:02:51;;;;;;;1.30;1.20;;;23.10;67.40;;;;;;5067505;28;20752;-49
2022/09/03 02:05:28;;;;;;;1.20;1.10;;;23.10;67.40;;;;;;5050505;28;20196;-50
2022/09/03 02:08:00;;;;;;;2.03;1.00;;;23.20;67.60;;;;;;5072425;28;20321;-50
2022/09/03 02:10:39;;;;;;;1.35;1.25;;;23.10;67.40;;;;;;5081203;28;20568;-49
2022/09/03 02:13:19;;;;;;;2.25;1.27;;;23.10;67.40;;;;;;5051054;28;20215;-49
2022/09/03 02:15:49;;;;;;;2.47;1.85;;;23.10;67.40;;;;;;5059173;28;20719;-49
2022/09/03 02:18:24;;;;;;;2.17;1.30;;;23.10;67.50;;;;;;5046190;28;20204;-47
2022/09/03 02:20:53;;;;;;;2.38;1.02;;;23.10;67.50;;;;;;5063349;28;20199;-46
2022/09/03 02:23:23;;;;;;;1.45;1.15;;;23.00;67.50;;;;;;5066533;28;20948;-47
2022/09/03 02:25:58;;;;;;;2.20;1.30;;;23.00;67.50;;;;;;5052496;28;20344;-47
2022/09/03 02:28:28;;;;;;;1.60;1.10;;;23.00;67.60;;;;;;5060789;28;20253;-46
2022/09/03 02:30:57;;;;;;;2.22;1.30;;;23.00;67.70;;;;;;5066558;28;20246;-46
2022/09/03 02:33:26;;;;;;;1.13;1.02;;;23.00;67.70;;;;;;5046249;28;20217;-46
2022/09/03 02:35:58;;;;;;;2.47;1.10;;;23.00;67.80;;;;;;5047880;28;20204;-47
2022/09/03 02:38:25;;;;;;;1.95;1.27;;;22.90;67.70;;;;;;5045759;28;20216;-47
2022/09/03 02:40:53;;;;;;;3.55;1.42;;;23.00;67.70;;;;;;5053467;28;20678;-46
2022/09/03 02:43:32;;;;;;;1.63;1.20;;;23.00;67.70;;;;;;5063794;28;20223;-46
2022/09/03 02:46:06;;;;;;;4.30;1.48;;;23.00;67.80;;;;;;5051628;28;20200;-47
2022/09/03 02:48:34;;;;;;;1.60;1.10;;;22.90;67.70;;;;;;5058624;28;20249;-47
2022/09/03 02:51:01;;;;;;;2.95;1.30;;;22.90;67.70;;;;;;5061925;28;20254;-46
2022/09/03 02:53:42;;;;;;;1.35;1.15;;;22.90;67.70;;;;;;5063576;28;20192;-47
2022/09/03 02:56:10;;;;;;;1.55;1.10;;;22.90;67.80;;;;;;5050970;28;20196;-46
2022/09/03 02:58:42;;;;;;;1.20;1.10;;;22.90;67.60;;;;;;5061869;28;20342;-47
2022/09/03 03:01:11;;;;;;;1.02;0.93;;;23.00;68.50;;;;;;5063375;28;20204;-46
2022/09/03 03:03:51;;;;;;;2.35;1.20;;;23.00;67.80;;;;;;5050130;28;20319;-54
2022/09/03 03:06:22;;;;;;;2.40;1.35;;;23.00;67.80;;;;;;5047430;28;20741;-47
2022/09/03 03:08:55;;;;;;;1.27;1.00;;;22.90;67.80;;;;;;5043823;28;20222;-46
2022/09/03 03:11:26;;;;;;;1.42;1.20;;;22.90;67.90;;;;;;5064014;28;20210;-45
2022/09/03 03:13:53;;;;;;;2.40;1.40;;;22.90;68.60;;;;;;5052528;28;20251;-45
2022/09/03 03:16:23;;;;;;;5.15;1.67;;;22.90;67.90;;;;;;5059706;28;20223;-45
2022/09/03 03:18:51;;;;;;;2.42;1.50;;;22.90;68.00;;;;;;5063536;28;20227;-45
2022/09/03 03:21:18;;;;;;;1.30;1.20;;;22.90;68.00;;;;;;5049610;28;20204;-52
2022/09/03 03:23:50;;;;;;;3.05;1.33;;;22.90;68.00;;;;;;5052123;28;20566;-50
2022/09/03 03:26:23;;;;;;;1.88;1.15;;;22.90;68.10;;;;;;5063807;28;20298;-51
2022/09/03 03:28:58;;;;;;;2.83;1.25;;;22.90;68.10;;;;;;5059772;28;20227;-50
2022/09/03 03:31:26;;;;;;;3.97;1.70;;;22.80;68.20;;;;;;5063469;28;20314;-49
2022/09/03 03:33:56;;;;;;;4.30;1.20;;;22.80;68.20;;;;;;5058598;28;20734;-51
2022/09/03 03:36:25;;;;;;;2.60;1.35;;;22.80;68.20;;;;;;5064376;28;20196;-49
2022/09/03 03:38:55;;;;;;;2.70;1.40;;;22.80;68.20;;;;;;5057238;28;20223;-49
2022/09/03 03:41:27;;;;;;;2.17;1.20;;;22.80;68.30;;;;;;5050673;28;20200;-50
2022/09/03 03:44:01;;;;;;;2.63;1.20;;;22.70;68.20;;;;;;5053594;28;20204;-50
2022/09/03 03:46:37;;;;;;;1.60;1.40;;;22.70;68.30;;;;;;5061055;28;20658;-50
2022/09/03 03:49:05;;;;;;;1.30;1.10;;;22.70;68.30;;;;;;5063922;28;20203;-48
2022/09/03 03:51:34;;;;;;;1.63;1.30;;;22.70;68.40;;;;;;5060257;28;20553;-49
2022/09/03 03:54:02;;;;;;;1.92;1.25;;;22.70;68.40;;;;;;5052455;28;20559;-50
2022/09/03 03:56:32;;;;;;;1.30;1.20;;;22.70;68.40;;;;;;5048994;28;20200;-49
2022/09/03 03:59:00;;;;;;;1.85;1.35;;;22.60;68.40;;;;;;5050267;28;20584;-49
2022/09/03 04:01:28;;;;;;;2.33;1.50;;;22.60;68.40;;;;;;5048997;28;20223;-49
2022/09/03 04:03:57;;;;;;;2.08;1.50;;;22.60;68.40;;;;;;5056951;28;20230;-50
2022/09/03 04:06:25;;;;;;;1.23;1.08;;;22.60;69.20;;;;;;5058564;28;20646;-49
2022/09/03 04:08:54;;;;;;;1.70;1.10;;;22.60;68.60;;;;;;5068054;28;20927;-50
2022/09/03 04:11:27;;;;;;;2.58;1.30;;;22.60;68.60;;;;;;5056278;28;20545;-48
2022/09/03 04:13:54;;;;;;;1.88;1.55;;;22.70;68.80;;;;;;5055704;28;20200;-50
2022/09/03 04:16:26;;;;;;;2.35;1.33;;;22.60;68.80;;;;;;5060729;28;20226;-50
2022/09/03 04:18:54;;;;;;;2.22;1.30;;;22.60;68.90;;;;;;5068540;28;20203;-50
2022/09/03 04:21:29;;;;;;;2.10;1.42;;;22.60;68.90;;;;;;5068133;28;20199;-49
2022/09/03 04:23:59;;;;;;;2.33;1.20;;;22.60;68.90;;;;;;5054780;28;20678;-49
2022/09/03 04:26:33;;;;;;;4.05;1.40;;;22.60;68.80;;;;;;5049341;28;20582;-50
2022/09/03 04:29:06;;;;;;;2.22;1.05;;;22.60;69.00;;;;;;5058870;28;20290;-50
2022/09/03 04:31:37;;;;;;;2.70;1.40;;;22.50;69.10;;;;;;5048934;28;20650;-49
2022/09/03 04:34:06;;;;;;;4.10;1.10;;;22.50;68.90;;;;;;5053998;28;20215;-49
2022/09/03 04:36:36;;;;;;;2.72;1.42;;;22.50;69.00;;;;;;5068090;28;20212;-49
2022/09/03 04:39:06;;;;;;;2.08;1.50;;;22.50;69.00;;;;;;5068173;28;20202;-47
2022/09/03 04:41:36;;;;;;;2.60;1.40;;;22.50;69.00;;;;;;5060708;28;20707;-47
2022/09/03 04:44:08;;;;;;;2.75;1.40;;;22.50;69.10;;;;;;5055533;28;20217;-45
2022/09/03 04:46:39;;;;;;;2.78;1.52;;;22.50;69.20;;;;;;5050529;28;20212;-46
2022/09/03 04:49:11;;;;;;;2.50;1.30;;;22.50;69.20;;;;;;5048343;28;20215;-48
2022/09/03 04:51:39;;;;;;;1.92;1.63;;;22.50;69.30;;;;;;5058979;28;20269;-48
2022/09/03 04:54:09;;;;;;;3.55;1.65;;;22.50;69.30;;;;;;5057032;28;20690;-49
2022/09/03 04:56:38;;;;;;;6.82;1.80;;;22.50;69.30;;;;;;5067001;28;20678;-48
2022/09/03 04:59:08;;;;;;;17.83;2.08;;;22.50;69.40;;;;;;5052421;28;20232;-50
2022/09/03 05:01:37;;;;;;;4.68;1.70;;;22.50;69.60;;;;;;5051600;28;20206;-49
2022/09/03 05:04:08;;;;;;;4.68;1.45;;;22.50;69.60;;;;;;5052777;28;20641;-48
2022/09/03 05:06:36;;;;;;;2.67;1.60;;;22.50;70.20;;;;;;5051940;28;20230;-48
2022/09/03 05:09:04;;;;;;;2.28;1.42;;;22.50;69.80;;;;;;5053760;28;20763;-49
2022/09/03 05:11:35;;;;;;;5.85;1.40;;;22.50;69.90;;;;;;5047466;28;21146;-49
2022/09/03 05:14:05;;;;;;;3.42;1.70;;;22.50;69.90;;;;;;5051270;28;20303;-49
2022/09/03 05:16:35;;;;;;;1.60;1.50;;;22.50;69.90;;;;;;5056444;28;21057;-49
2022/09/03 05:19:07;;;;;;;2.92;1.77;;;22.50;69.90;;;;;;5056891;28;20570;-48
2022/09/03 05:21:36;;;;;;;3.47;1.50;;;22.50;70.10;;;;;;5055251;28;20307;-49
2022/09/03 05:24:07;;;;;;;3.78;1.60;;;22.50;70.10;;;;;;5060025;28;20257;-48
2022/09/03 05:26:38;;;;;;;1.80;1.60;;;22.50;70.20;;;;;;5057770;28;20662;-48
2022/09/03 05:29:07;;;;;;;2.97;1.60;;;22.50;70.30;;;;;;5049158;28;20219;-48
2022/09/03 05:31:38;;;;;;;3.17;1.67;;;22.50;70.40;;;;;;5055230;28;20299;-49
2022/09/03 05:34:08;;;;;;;3.08;1.67;;;22.40;70.40;;;;;;5058796;28;20249;-48
2022/09/03 05:36:42;;;;;;;2.53;1.58;;;22.40;70.40;;;;;;5060719;28;20196;-49
2022/09/03 05:39:09;;;;;;;2.47;1.40;;;22.40;70.40;;;;;;5047648;28;20290;-50
2022/09/03 05:41:39;;;;;;;3.72;1.60;;;22.40;70.50;;;;;;5055679;28;20273;-51
2022/09/03 05:44:06;;;;;;;3.25;1.50;;;22.40;70.50;;;;;;5048526;28;20204;-50
2022/09/03 05:46:36;;;;;;;2.08;1.30;;;22.40;70.60;;;;;;5056362;28;20192;-49
2022/09/03 05:49:10;;;;;;;4.80;1.90;;;22.40;70.60;;;;;;5045625;28;20615;-50
2022/09/03 05:51:38;;;;;;;2.72;1.80;;;22.40;70.70;;;;;;5050561;28;20236;-49
2022/09/03 05:54:07;;;;;;;1.90;1.25;;;22.40;70.70;;;;;;5050597;28;20203;-52
2022/09/03 05:56:38;;;;;;;1.95;1.38;;;22.40;70.60;;;;;;5056279;28;20253;-50
2022/09/03 05:59:08;;;;;;;3.95;1.42;;;22.40;71.40;;;;;;5051002;28;20239;-49
2022/09/03 06:01:44;;;;;;;4.82;1.58;;;22.40;70.70;;;;;;5063140;28;20757;-51
2022/09/03 06:04:19;;;;;;;4.05;1.67;;;22.40;70.80;;;;;;5069819;28;21596;-51
2022/09/03 06:06:49;;;;;;;1.65;1.42;;;22.50;71.10;;;;;;5050553;28;20224;-51
2022/09/03 06:09:19;;;;;;;2.72;1.23;;;22.50;71.10;;;;;;5060314;28;20290;-51
2022/09/03 06:11:49;;;;;;;9.80;1.75;;;22.50;71.30;;;;;;5065090;28;20269;-51
2022/09/03 06:14:19;;;;;;;2.97;1.50;;;22.50;71.20;;;;;;5047445;28;20645;-49
2022/09/03 06:16:49;;;;;;;4.45;1.52;;;22.50;71.20;;;;;;5051744;28;20373;-50
2022/09/03 06:19:16;;;;;;;2.63;1.60;;;22.60;71.40;;;;;;5062408;28;20199;-49
2022/09/03 06:21:46;;;;;;;3.13;1.60;;;22.60;71.20;;;;;;5063756;28;20203;-47
2022/09/03 06:24:17;;;;;;;5.18;1.63;;;22.60;71.20;;;;;;5060752;28;20216;-48
2022/09/03 06:26:45;;;;;;;2.90;1.70;;;22.60;71.40;;;;;;5057546;28;20263;-49
2022/09/03 06:29:13;;;;;;;1.48;1.30;;;22.70;71.50;;;;;;5057663;28;20203;-49
2022/09/03 06:31:40;;;;;;;3.17;1.40;;;22.70;71.60;;;;;;5045103;28;20214;-48
2022/09/03 06:34:07;;;;;;;1.70;1.27;;;22.70;71.50;;;;;;5054961;28;20288;-48
2022/09/03 06:36:39;;;;;;;2.92;1.40;;;22.80;71.60;;;;;;5047814;28;20204;-50
2022/09/03 06:39:07;;;;;;;4.72;1.60;;;22.80;71.80;;;;;;5051222;28;20576;-48
2022/09/03 06:41:37;;;;;;;3.78;1.80;;;22.90;71.80;;;;;;5046195;28;20319;-49
2022/09/03 06:44:10;;;;;;;2.78;1.50;;;22.90;71.80;;;;;;5053637;28;20231;-49
2022/09/03 06:46:41;;;;;;;2.67;1.70;;;23.00;72.10;;;;;;5049773;28;20192;-49
2022/09/03 06:49:10;;;;;;;2.70;1.38;;;23.00;71.90;;;;;;5045956;28;20212;-48
2022/09/03 06:51:39;;;;;;;2.33;1.42;;;23.00;72.00;;;;;;5054938;28;20294;-49
2022/09/03 06:54:12;;;;;;;3.75;1.50;;;23.10;72.10;;;;;;5057489;28;20207;-47
2022/09/03 06:56:42;;;;;;;2.88;1.58;;;23.10;72.30;;;;;;5064158;28;20204;-44
2022/09/03 06:59:14;;;;;;;2.13;1.58;;;23.20;72.40;;;;;;5046884;28;20816;-44
2022/09/03 07:01:43;;;;;;;3.30;1.70;;;23.20;72.60;;;;;;5052147;28;20304;-44
2022/09/03 07:04:15;;;;;;;5.88;1.70;;;23.20;72.50;;;;;;5047257;28;20231;-44
2022/09/03 07:06:45;;;;;;;5.53;1.90;;;23.20;72.60;;;;;;5053265;28;20894;-44
2022/09/03 07:09:17;;;;;;;2.28;1.58;;;23.20;72.60;;;;;;5057357;28;20270;-44
2022/09/03 07:11:49;;;;;;;5.97;1.80;;;23.30;72.60;;;;;;5060820;28;20287;-44
2022/09/03 07:14:18;;;;;;;2.50;1.42;;;23.30;72.60;;;;;;5064280;28;20203;-44
2022/09/03 07:16:51;;;;;;;2.53;1.67;;;23.40;72.90;;;;;;5052233;28;20216;-44
2022/09/03 07:19:18;;;;;;;3.15;1.70;;;23.40;72.90;;;;;;5058921;28;20249;-43
2022/09/03 07:21:46;;;;;;;3.80;1.67;;;23.40;72.90;;;;;;5056768;28;20223;-43
2022/09/03 07:24:18;;;;;;;2.80;1.42;;;23.50;73.10;;;;;;5051613;28;20215;-43
2022/09/03 07:26:47;;;;;;;2.47;1.58;;;23.50;73.20;;;;;;5057014;28;20268;-44
2022/09/03 07:29:18;;;;;;;3.00;1.52;;;23.60;73.40;;;;;;5067784;28;20240;-44
2022/09/03 07:31:51;;;;;;;3.53;1.48;;;23.60;73.40;;;;;;5067968;28;20305;-46
2022/09/03 07:34:22;;;;;;;4.28;1.48;;;23.70;73.50;;;;;;5055410;28;20215;-43
2022/09/03 07:36:53;;;;;;;2.88;1.20;;;23.70;73.60;;;;;;5065504;28;20302;-43
2022/09/03 07:39:21;;;;;;;2.15;1.42;;;23.80;73.80;;;;;;5058109;28;20693;-44
2022/09/03 07:41:50;;;;;;;5.38;1.45;;;23.80;73.80;;;;;;5049279;28;20227;-43
2022/09/03 07:44:18;;;;;;;2.72;1.48;;;23.90;74.00;;;;;;5056690;28;20204;-43
2022/09/03 07:46:49;;;;;;;3.13;1.30;;;24.00;74.00;;;;;;5062324;28;20207;-44
2022/09/03 07:49:19;;;;;;;2.72;1.33;;;24.00;74.10;;;;;;5059404;28;20234;-43
2022/09/03 07:51:49;;;;;;;3.40;1.42;;;24.10;74.20;;;;;;5048334;28;20215;-43
2022/09/03 07:54:20;;;;;;;3.40;1.60;;;24.20;74.30;;;;;;5057688;28;20203;-43
2022/09/03 07:56:48;;;;;;;2.20;1.70;;;24.30;74.50;;;;;;5048581;28;20258;-43
2022/09/03 07:59:15;;;;;;;2.78;1.30;;;24.30;74.50;;;;;;5048738;28;20788;-43
2022/09/03 08:01:42;;;;;;;2.38;1.58;;;24.30;74.60;;;;;;5048680;28;20331;-43
2022/09/03 08:04:10;;;;;;;3.92;1.52;;;24.40;74.70;;;;;;5069582;28;20200;-43
2022/09/03 08:06:41;;;;;;;3.42;1.38;;;24.40;74.70;;;;;;5067467;28;20211;-43
2022/09/03 08:09:12;;;;;;;7.63;1.90;;;24.50;75.00;;;;;;5054899;28;20211;-43
2022/09/03 08:11:42;;;;;;;4.90;1.90;;;24.50;75.00;;;;;;5052933;28;20581;-43
2022/09/03 08:14:13;;;;;;;45.22;6.72;;;24.60;75.10;;;;;;5059646;28;20301;-43
2022/09/03 08:16:48;;;;;;;44.05;7.75;;;24.60;75.10;;;;;;5065230;28;20298;-43
2022/09/03 08:19:19;;;;;;;45.95;8.80;;;24.70;75.30;;;;;;5049495;28;20204;-44
2022/09/03 08:21:49;;;;;;;16.60;4.03;;;24.70;75.30;;;;;;5069652;28;20638;-43
2022/09/03 08:24:20;;;;;;;8.35;2.63;;;24.70;75.40;;;;;;5051254;28;20261;-42
2022/09/03 08:26:49;;;;;;;6.40;1.77;;;24.80;75.40;;;;;;5060079;28;20218;-42
2022/09/03 08:29:19;;;;;;;3.05;1.75;;;24.80;75.40;;;;;;5061153;28;20314;-42
2022/09/03 08:31:47;;;;;;;3.90;1.80;;;24.90;75.50;;;;;;5063769;28;20227;-43
2022/09/03 08:34:16;;;;;;;2.08;1.40;;;24.90;76.20;;;;;;5058309;28;20228;-42
2022/09/03 08:36:46;;;;;;;3.22;1.58;;;25.00;75.60;;;;;;5068310;28;20223;-43
2022/09/03 08:39:14;;;;;;;3.05;2.08;;;25.00;75.70;;;;;;5055968;28;20196;-42
2022/09/03 08:41:42;;;;;;;3.05;1.80;;;25.00;75.60;;;;;;5059203;28;20326;-42
2022/09/03 08:44:30;;;;;;;8.57;2.10;;;25.00;75.70;;;;;;5052687;28;20196;-41
2022/09/03 08:47:11;;;;;;;4.03;1.90;;;25.10;75.90;;;;;;5061169;28;20215;-42
2022/09/03 08:49:50;;;;;;;2.17;1.80;;;25.20;76.10;;;;;;5064217;28;20204;-41
2022/09/03 08:52:49;;;;;;;1.77;1.40;;;25.20;76.20;;;;;;5053426;28;20195;-42
2022/09/03 08:55:25;;;;;;;2.05;1.60;;;25.30;76.20;;;;;;5064031;28;20247;-40
2022/09/03 08:58:03;;;;;;;4.55;1.73;;;25.30;76.40;;;;;;5060559;28;20666;-41
2022/09/03 09:00:39;;;;;;;2.28;1.60;;;25.40;76.60;;;;;;5048825;28;20691;-42
2022/09/03 09:03:19;;;;;;;4.95;1.85;;;25.50;76.80;;;;;;5051698;28;20697;-41
2022/09/03 09:06:06;;;;;;;8.98;2.58;;;25.50;76.70;;;;;;5056844;28;20223;-41
2022/09/03 09:09:17;;;;;;;6.43;2.47;;;25.60;76.80;;;;;;5048504;28;20254;-42
2022/09/03 09:12:00;;;;;;;3.80;1.73;;;25.70;77.20;;;;;;5063034;28;20208;-41
2022/09/03 09:14:41;;;;;;;4.53;1.67;;;25.70;77.30;;;;;;5066694;28;20219;-41
2022/09/03 09:17:26;;;;;;;3.75;1.90;;;25.90;77.50;;;;;;5067124;28;20207;-42
2022/09/03 09:20:45;;;;;;;8.63;2.42;;;25.90;77.60;;;;;;5060015;28;20223;-42
2022/09/03 09:23:34;;;;;;;9.63;2.72;;;26.00;77.60;;;;;;5040811;28;20667;-41
2022/09/03 09:26:09;;;;;;;2.75;1.95;;;26.00;77.60;;;;;;5044170;28;20287;-41
2022/09/03 09:28:38;;;;;;;2.97;1.75;;;26.00;77.80;;;;;;5046608;28;20261;-40
2022/09/03 09:31:11;;;;;;;4.78;1.80;;;26.10;77.80;;;;;;5047954;28;20573;-40
2022/09/03 09:33:38;;;;;;;3.70;2.30;;;26.10;77.80;;;;;;5058961;28;20227;-44
2022/09/03 09:36:10;;;;;;;2.47;2.22;;;26.10;77.80;;;;;;5047891;28;20204;-46
2022/09/03 09:38:38;;;;;;;2.50;1.90;;;26.10;78.60;;;;;;5047125;28;20226;-43
2022/09/03 09:41:14;;;;;;;3.45;1.92;;;26.20;78.00;;;;;;5047290;28;20531;-44
2022/09/03 09:43:46;;;;;;;2.72;1.60;;;26.20;78.30;;;;;;5044861;28;20219;-43
2022/09/03 09:46:23;;;;;;;3.83;1.83;;;26.20;78.10;;;;;;5055791;28;20311;-43
2022/09/03 09:48:55;;;;;;;4.95;2.20;;;26.30;78.40;;;;;;5054737;28;20215;-44
2022/09/03 09:51:30;;;;;;;2.58;1.80;;;26.40;78.50;;;;;;5046647;28;20596;-44
2022/09/03 09:54:15;;;;;;;6.88;2.30;;;26.40;78.50;;;;;;5057623;28;20227;-43
2022/09/03 09:56:45;;;;;;;2.83;2.10;;;26.50;78.80;;;;;;5051486;28;20205;-44
2022/09/03 09:59:18;;;;;;;18.65;4.20;;;26.50;78.90;;;;;;5047479;28;20494;-43
2022/09/03 10:01:48;;;;;;;19.17;4.00;;;26.60;78.80;;;;;;5045864;28;20230;-43
2022/09/03 10:04:29;;;;;;;11.98;2.80;;;26.70;78.90;;;;;;5047314;28;20476;-44
2022/09/03 10:07:20;;;;;;;15.68;3.55;;;26.70;79.10;;;;;;5046918;28;20831;-43
2022/09/03 10:09:58;;;;;;;58.03;10.02;;;26.70;79.20;;;;;;5051022;28;20297;-44
2022/09/03 10:12:40;;;;;;;99.95;14.70;;;26.70;79.00;;;;;;5058287;28;20310;-43
2022/09/03 10:15:36;;;;;;;19.42;4.80;;;26.80;79.00;;;;;;5055923;28;20234;-44
2022/09/03 10:18:35;;;;;;;9.25;3.28;;;26.70;79.20;;;;;;5060129;28;20223;-43
2022/09/03 10:21:44;;;;;;;4.90;3.00;;;26.80;79.30;;;;;;5057896;28;20252;-43
2022/09/03 10:24:39;;;;;;;5.53;2.60;;;26.80;79.30;;;;;;5059265;28;20290;-40
2022/09/03 10:27:13;;;;;;;7.03;2.42;;;26.80;79.40;;;;;;5055018;28;20210;-41
2022/09/03 10:29:40;;;;;;;3.50;2.47;;;26.90;79.70;;;;;;5059361;28;20281;-41
2022/09/03 10:32:21;;;;;;;3.10;2.30;;;27.00;80.00;;;;;;5049870;28;20212;-41
2022/09/03 10:35:12;;;;;;;4.53;2.28;;;27.10;80.10;;;;;;5054705;28;20564;-41
2022/09/03 10:37:56;;;;;;;5.35;2.60;;;27.10;80.10;;;;;;5055617;28;20216;-42
2022/09/03 10:40:51;;;;;;;4.22;2.50;;;27.20;80.10;;;;;;5055782;28;20199;-42
2022/09/03 10:43:40;;;;;;;4.45;2.50;;;27.20;81.20;;;;;;5052604;28;20635;-41
2022/09/03 10:46:10;;;;;;;6.88;2.80;;;27.30;80.20;;;;;;5047054;28;20643;-42
2022/09/03 10:49:17;;;;;;;5.47;2.92;;;27.30;80.40;;;;;;5060826;28;20208;-42
2022/09/03 10:52:08;;;;;;;9.00;2.85;;;27.30;80.40;;;;;;5056391;28;20203;-41
2022/09/03 10:54:51;;;;;;;3.55;2.70;;;27.40;80.10;;;;;;5061312;28;20293;-43
2022/09/03 10:57:30;;;;;;;5.32;2.72;;;27.40;80.10;;;;;;5064206;28;20689;-43
2022/09/03 10:59:57;;;;;;;21.88;4.63;;;27.40;80.10;;;;;;5061609;28;20327;-44
2022/09/03 11:02:46;;;;;;;9.00;3.95;;;27.40;80.40;;;;;;5051583;28;20746;-43
2022/09/03 11:05:31;;;;;;;4.18;2.90;;;27.40;80.20;;;;;;5047689;28;20754;-43
2022/09/03 11:08:08;;;;;;;3.67;2.65;;;27.50;80.10;;;;;;5055610;28;20218;-43
2022/09/03 11:10:42;;;;;;;5.75;2.67;;;27.50;80.10;;;;;;5066639;28;20204;-40
2022/09/03 11:13:21;;;;;;;21.23;4.88;;;27.50;80.10;;;;;;5055644;28;20689;-40
2022/09/03 11:16:03;;;;;;;14.60;5.20;;;27.50;80.20;;;;;;5054538;28;20737;-41
2022/09/03 11:18:40;;;;;;;12.20;4.15;;;27.40;80.00;;;;;;5062862;28;20204;-43
2022/09/03 11:21:12;;;;;;;6.70;3.08;;;27.40;80.10;;;;;;5048471;28;20231;-43
2022/09/03 11:23:43;;;;;;;8.80;3.42;;;27.40;80.00;;;;;;5063140;28;20686;-45
2022/09/03 11:26:16;;;;;;;4.07;2.50;;;27.40;80.20;;;;;;5045643;28;20690;-45
2022/09/03 11:28:55;;;;;;;5.53;2.88;;;27.40;80.30;;;;;;5060734;28;20690;-45
2022/09/03 11:31:56;;;;;;;2.95;2.60;;;27.50;80.60;;;;;;5046066;28;20212;-45
2022/09/03 11:34:26;;;;;;;4.18;2.85;;;27.60;80.70;;;;;;5058627;28;20305;-45
2022/09/03 11:37:18;;;;;;;5.50;2.90;;;27.60;80.60;;;;;;5050954;28;20273;-45
2022/09/03 11:40:06;;;;;;;2.80;2.58;;;27.60;81.80;;;;;;5052089;28;20679;-45
2022/09/03 11:42:41;;;;;;;5.65;3.00;;;27.60;80.70;;;;;;5048955;28;20310;-45
2022/09/03 11:45:13;;;;;;;3.33;2.70;;;27.70;81.30;;;;;;5055765;28;20195;-45
2022/09/03 11:47:43;;;;;;;3.28;2.80;;;27.70;80.90;;;;;;5064301;28;20839;-45
2022/09/03 11:50:19;;;;;;;2.80;2.60;;;27.70;81.40;;;;;;5048183;28;20208;-45
2022/09/03 11:52:50;;;;;;;2.53;2.28;;;27.80;80.70;;;;;;5050289;28;20230;-45
2022/09/03 11:55:32;;;;;;;3.05;2.47;;;27.80;80.60;;;;;;5055771;28;20663;-43
2022/09/03 11:58:26;;;;;;;5.60;3.05;;;27.80;80.70;;;;;;5044614;28;20260;-43
2022/09/03 12:00:54;;;;;;;7.47;2.60;;;27.80;80.80;;;;;;5059918;28;20600;-44
2022/09/03 12:03:27;;;;;;;3.78;2.60;;;27.80;80.90;;;;;;5054376;28;20664;-43
2022/09/03 12:06:21;;;;;;;3.55;2.45;;;27.90;81.10;;;;;;5061348;28;20260;-44
2022/09/03 12:08:57;;;;;;;4.45;2.88;;;27.90;81.00;;;;;;5058937;28;20227;-43
2022/09/03 12:11:48;;;;;;;2.72;2.47;;;27.90;81.20;;;;;;5066070;28;20298;-45
2022/09/03 12:14:21;;;;;;;3.10;2.65;;;28.00;81.20;;;;;;5068435;28;20219;-44
2022/09/03 12:17:13;;;;;;;2.28;2.13;;;28.00;81.10;;;;;;5063611;28;20193;-42
2022/09/03 12:19:54;;;;;;;5.22;2.70;;;28.00;81.10;;;;;;5066024;28;20216;-43
2022/09/03 12:22:25;;;;;;;3.17;2.30;;;28.10;81.00;;;;;;5067405;28;20320;-43
2022/09/03 12:24:52;;;;;;;2.47;2.28;;;28.10;80.80;;;;;;5060637;28;20212;-43
2022/09/03 12:27:25;;;;;;;3.45;2.08;;;28.10;81.00;;;;;;5049312;28;20691;-43
2022/09/03 12:30:01;;;;;;;2.42;2.22;;;28.20;80.80;;;;;;5067840;28;20200;-43
2022/09/03 12:32:38;;;;;;;2.50;2.20;;;28.20;80.80;;;;;;5056034;28;20698;-42
2022/09/03 12:35:27;;;;;;;2.58;1.90;;;28.30;81.10;;;;;;5035769;28;20769;-43
2022/09/03 12:38:28;;;;;;;2.08;1.90;;;28.30;80.50;;;;;;5049585;28;20211;-42
2022/09/03 12:40:55;;;;;;;2.55;2.20;;;28.30;80.60;;;;;;5054417;28;20188;-43
2022/09/03 12:43:51;;;;;;;2.63;2.20;;;28.30;80.60;;;;;;5049025;28;20195;-43
2022/09/03 12:46:23;;;;;;;4.03;2.10;;;28.30;80.70;;;;;;5054230;28;20203;-43
2022/09/03 12:49:06;;;;;;;2.35;2.15;;;28.40;80.80;;;;;;5052150;28;20295;-44
2022/09/03 12:52:05;;;;;;;4.57;2.33;;;28.40;80.70;;;;;;5046457;28;20584;-44
2022/09/03 12:54:47;;;;;;;4.20;2.20;;;28.50;80.70;;;;;;5048146;28;20216;-42
2022/09/03 12:57:21;;;;;;;2.22;2.03;;;28.50;80.80;;;;;;5064881;28;20211;-44
2022/09/03 12:59:55;;;;;;;3.17;1.80;;;28.50;80.50;;;;;;5066136;28;20243;-44
2022/09/03 13:02:35;;;;;;;1.80;1.70;;;28.60;80.30;;;;;;5047043;28;20717;-43
2022/09/03 13:05:04;;;;;;;2.83;1.90;;;28.60;80.50;;;;;;5049722;28;20192;-43
2022/09/03 13:07:37;;;;;;;2.45;2.22;;;28.60;80.60;;;;;;5052112;28;20238;-44
2022/09/03 13:10:27;;;;;;;3.08;2.35;;;28.60;80.80;;;;;;5045254;28;20207;-45
2022/09/03 13:13:02;;;;;;;4.85;2.58;;;28.70;80.90;;;;;;5064822;28;20209;-45
2022/09/03 13:15:32;;;;;;;2.72;2.03;;;28.70;81.10;;;;;;5048531;28;20336;-45
2022/09/03 13:18:18;;;;;;;2.78;2.47;;;28.80;81.20;;;;;;5056872;28;20220;-44
2022/09/03 13:21:23;;;;;;;3.17;2.40;;;28.80;81.30;;;;;;5047002;28;20658;-44
2022/09/03 13:24:05;;;;;;;4.38;2.30;;;28.90;81.40;;;;;;5048229;28;20216;-44
2022/09/03 13:26:46;;;;;;;3.13;2.45;;;29.00;81.50;;;;;;5047612;28;20603;-45
2022/09/03 13:29:36;;;;;;;4.03;2.72;;;29.10;81.60;;;;;;5047820;28;20211;-45